Latakia, Turkey
Current Conditions -  °F | °C
As of 7:00 PM on Sunday 23 Nov 2014 (Local Time) from OSLK Reporting Station
Broken Clouds Broken Clouds  
Wind Chill: 55°   Ceiling: 10000
Heat Index: 55°   Visibility: 6mi
Dew Point: 50°   Wind: 7mph
Humidity: 82%   Direction: 60°ENE
Pressure: 29.94"   Gusts: NA
Location:  35.52°N, 35.78°E
Report Text: OSLK 231600Z 06006KT 9999 FEW026CB SCT030 BKN100 13/10 Q1014
Loading
Personal Weather Stations






























Interactive Weather Map New forecast layout! Learn more

10-Day Weather Forecast

Advertisements
Track Severe Weather on mobile